Time;durP1;ratioP1;P1;durP2;ratioP2;P2;SDS_P1;SDS_P2;PMS_P1;PMS_P2;Temp;Humidity;BMP_temperature;BMP_pressure;BME280_temperature;BME280_humidity;BME280_pressure;Samples;Min_cycle;Max_cycle;Signal;HPM_P1;HPM_P2
2023/06/22 00:01:25;;;;;;;6.75;2.90;;;26.70;74.50;;;;;;7380034;19;20099;-71
2023/06/22 00:03:53;;;;;;;6.05;2.60;;;26.70;74.50;;;;;;7377469;19;20024;-71
2023/06/22 00:06:22;;;;;;;3.53;2.90;;;26.70;74.30;;;;;;7398894;19;20003;-71
2023/06/22 00:08:51;;;;;;;4.78;2.75;;;26.70;74.20;;;;;;7378440;19;20271;-72
2023/06/22 00:11:20;;;;;;;6.85;4.10;;;26.70;74.20;;;;;;7378706;19;20019;-72
2023/06/22 00:13:51;;;;;;;16.30;6.88;;;26.70;74.40;;;;;;7378277;19;20074;-71
2023/06/22 00:16:19;;;;;;;;;;;26.60;74.50;;;;;;7378276;19;20066;-71
2023/06/22 00:18:48;;;;;;;8.02;4.13;;;26.40;74.90;;;;;;7380194;19;19927;-72
2023/06/22 00:21:20;;;;;;;11.30;5.70;;;26.40;75.00;;;;;;7400192;19;20013;-72
2023/06/22 00:23:48;;;;;;;5.90;3.53;;;26.40;75.20;;;;;;7378012;19;20066;-71
2023/06/22 00:26:17;;;;;;;10.43;3.58;;;26.40;75.20;;;;;;7378200;19;20382;-71
2023/06/22 00:28:46;;;;;;;13.93;3.55;;;26.40;75.20;;;;;;7378943;19;20014;-71
2023/06/22 00:31:17;;;;;;;4.57;2.95;;;26.40;75.20;;;;;;7378676;19;20019;-71
2023/06/22 00:33:46;;;;;;;8.95;3.33;;;26.40;75.20;;;;;;7377633;19;20024;-71
2023/06/22 00:36:16;;;;;;;10.55;3.50;;;26.40;75.20;;;;;;7398207;19;20006;-71
2023/06/22 00:38:44;;;;;;;7.35;3.47;;;26.40;75.20;;;;;;7377957;19;20075;-72
2023/06/22 00:41:13;;;;;;;6.10;2.88;;;26.40;75.20;;;;;;7378264;19;20389;-72
2023/06/22 00:43:42;;;;;;;4.72;2.75;;;26.30;75.20;;;;;;7378729;19;20098;-71
2023/06/22 00:46:11;;;;;;;4.97;3.35;;;26.30;75.40;;;;;;7379238;19;20011;-71
2023/06/22 00:48:43;;;;;;;8.00;3.35;;;26.30;75.50;;;;;;7376592;19;20358;-71
2023/06/22 00:51:13;;;;;;;5.22;2.92;;;26.30;75.60;;;;;;7397621;19;20015;-71
2023/06/22 00:53:43;;;;;;;7.38;3.10;;;26.30;75.50;;;;;;7381176;19;20006;-71
2023/06/22 00:56:12;;;;;;;6.93;3.55;;;26.30;76.20;;;;;;7378434;19;20059;-71
2023/06/22 00:58:42;;;;;;;11.88;3.42;;;26.30;75.60;;;;;;7377280;19;20512;-71
2023/06/22 01:01:10;;;;;;;4.55;3.22;;;26.40;75.50;;;;;;7377520;19;20232;-71
2023/06/22 01:03:42;;;;;;;4.63;3.33;;;26.30;75.50;;;;;;7378915;19;20070;-72
2023/06/22 01:06:13;;;;;;;;;;;26.30;75.40;;;;;;7398894;19;20007;-71
2023/06/22 01:08:49;;;;;;;3.30;2.70;;;26.30;75.50;;;;;;7378045;19;20294;-71
2023/06/22 01:11:22;;;;;;;3.78;2.75;;;26.20;75.30;;;;;;7377819;19;19999;-72
2023/06/22 01:14:00;;;;;;;5.30;3.53;;;26.20;75.40;;;;;;7377444;19;20382;-72
2023/06/22 01:16:32;;;;;;;5.28;2.92;;;26.20;75.40;;;;;;7384657;19;20031;-72
2023/06/22 01:19:17;;;;;;;8.55;3.25;;;26.20;75.50;;;;;;7387084;19;20010;-72
2023/06/22 01:21:47;;;;;;;5.32;3.50;;;26.10;75.50;;;;;;7385138;19;20002;-72
2023/06/22 01:24:24;;;;;;;4.68;3.10;;;26.10;75.70;;;;;;7406032;19;20263;-72
2023/06/22 01:27:03;;;;;;;4.90;3.17;;;26.10;75.90;;;;;;7383450;19;20062;-72
2023/06/22 01:29:36;;;;;;;6.07;3.25;;;26.00;75.80;;;;;;7383144;19;20014;-72
2023/06/22 01:32:07;;;;;;;5.40;3.65;;;25.90;76.00;;;;;;7383490;19;20006;-71
2023/06/22 01:34:37;;;;;;;13.07;6.03;;;25.90;76.30;;;;;;7386014;19;20240;-72
2023/06/22 01:37:06;;;;;;;10.40;5.72;;;25.90;76.00;;;;;;7383370;19;20010;-72
2023/06/22 01:39:36;;;;;;;10.10;5.13;;;25.90;76.00;;;;;;7384173;19;20062;-72
2023/06/22 01:42:06;;;;;;;9.90;4.63;;;25.90;76.10;;;;;;7405068;19;20010;-72
2023/06/22 01:44:38;;;;;;;10.70;3.88;;;25.90;76.10;;;;;;7382702;19;20070;-71
2023/06/22 01:47:07;;;;;;;8.13;3.70;;;25.90;75.70;;;;;;7382432;19;20016;-72
2023/06/22 01:49:36;;;;;;;12.80;4.05;;;25.80;75.80;;;;;;7383735;19;20002;-72
2023/06/22 01:52:06;;;;;;;6.72;3.75;;;25.80;76.00;;;;;;7383715;19;20006;-71
2023/06/22 01:54:34;;;;;;;7.57;3.70;;;25.80;76.00;;;;;;7381131;19;20555;-72
2023/06/22 01:57:03;;;;;;;7.15;3.60;;;25.80;75.80;;;;;;7404260;19;20027;-71
2023/06/22 01:59:42;;;;;;;7.60;3.33;;;25.90;76.00;;;;;;7382375;19;20140;-72
2023/06/22 02:02:14;;;;;;;7.90;3.47;;;25.90;76.00;;;;;;7382417;19;19999;-72
2023/06/22 02:04:46;;;;;;;9.82;3.92;;;25.90;75.90;;;;;;7383225;19;20070;-72
2023/06/22 02:07:19;;;;;;;6.43;3.30;;;25.80;75.70;;;;;;7381378;19;20272;-72
2023/06/22 02:09:51;;;;;;;7.40;3.17;;;25.80;75.60;;;;;;7385442;19;20456;-71
2023/06/22 02:12:27;;;;;;;7.10;3.33;;;25.70;75.80;;;;;;7404961;19;20018;-72
2023/06/22 02:15:00;;;;;;;11.75;3.25;;;25.80;75.90;;;;;;7380373;19;20077;-72
2023/06/22 02:17:32;;;;;;;5.80;3.53;;;25.80;76.00;;;;;;7381394;19;20031;-72
2023/06/22 02:20:01;;;;;;;6.75;3.10;;;25.70;75.80;;;;;;7381996;19;20003;-72
2023/06/22 02:22:30;;;;;;;4.75;2.90;;;25.70;75.90;;;;;;7382780;19;20071;-71
2023/06/22 02:24:59;;;;;;;6.95;3.20;;;25.70;75.80;;;;;;7382936;19;20021;-72
2023/06/22 02:27:27;;;;;;;6.63;3.53;;;25.70;76.10;;;;;;7385393;19;20010;-72
2023/06/22 02:29:59;;;;;;;8.00;3.05;;;25.70;76.90;;;;;;7403110;19;20070;-72
2023/06/22 02:32:28;;;;;;;7.28;3.22;;;25.70;76.10;;;;;;7381339;19;20019;-72
2023/06/22 02:34:57;;;;;;;5.10;3.08;;;25.60;76.00;;;;;;7384452;19;20006;-72
2023/06/22 02:37:29;;;;;;;15.13;3.75;;;25.50;76.10;;;;;;7381294;19;20018;-72
2023/06/22 02:39:58;;;;;;;7.47;3.40;;;25.50;76.20;;;;;;7380386;19;20013;-71
2023/06/22 02:42:26;;;;;;;5.75;3.75;;;25.40;76.30;;;;;;7381858;19;20010;-72
2023/06/22 02:44:55;;;;;;;11.70;4.60;;;25.40;77.40;;;;;;7402584;19;20293;-71
2023/06/22 02:47:26;;;;;;;11.75;3.17;;;25.50;76.60;;;;;;7381136;19;20007;-71
2023/06/22 02:49:55;;;;;;;;;;;25.50;76.40;;;;;;7381294;19;20010;-72
2023/06/22 02:52:23;;;;;;;7.68;3.30;;;25.50;76.20;;;;;;7380233;19;19910;-72
2023/06/22 02:54:52;;;;;;;8.02;3.38;;;25.50;76.50;;;;;;7381584;19;20066;-72
2023/06/22 02:57:21;;;;;;;7.55;3.15;;;25.40;76.40;;;;;;7400841;19;20379;-72
2023/06/22 02:59:49;;;;;;;8.88;4.05;;;25.40;76.60;;;;;;7381869;19;20010;-72
2023/06/22 03:02:21;;;;;;;9.93;4.03;;;25.40;76.60;;;;;;7380233;19;20011;-71
2023/06/22 03:04:53;;;;;;;11.82;4.00;;;25.40;76.60;;;;;;7380927;19;20031;-71
2023/06/22 03:07:22;;;;;;;8.73;4.05;;;25.40;76.30;;;;;;7380033;19;20003;-72
2023/06/22 03:09:51;;;;;;;6.63;4.25;;;25.40;76.40;;;;;;7380156;19;19999;-72
2023/06/22 03:12:20;;;;;;;6.72;4.40;;;25.40;76.50;;;;;;7400649;19;20235;-72
2023/06/22 03:14:48;;;;;;;11.48;3.97;;;25.30;77.50;;;;;;7378490;19;20216;-71
2023/06/22 03:17:17;;;;;;;11.07;4.60;;;25.20;76.70;;;;;;7381612;19;20063;-71
2023/06/22 03:19:46;;;;;;;12.75;4.00;;;24.90;77.10;;;;;;7380621;19;20104;-71
2023/06/22 03:22:17;;;;;;;5.97;3.78;;;24.90;77.50;;;;;;7380695;19;20418;-71
2023/06/22 03:24:45;;;;;;;;;;;24.90;77.50;;;;;;7381732;19;20014;-71
2023/06/22 03:27:14;;;;;;;8.27;4.18;;;24.90;77.60;;;;;;7404175;19;19975;-72
2023/06/22 03:29:43;;;;;;;7.05;4.03;;;25.00;77.50;;;;;;7379153;19;20291;-71
2023/06/22 03:32:11;;;;;;;7.28;3.58;;;25.00;78.30;;;;;;7380608;19;20070;-72
2023/06/22 03:34:40;;;;;;;9.25;4.65;;;24.90;77.70;;;;;;7381930;19;20011;-72
2023/06/22 03:37:09;;;;;;;6.55;3.83;;;24.90;77.70;;;;;;7379701;19;20067;-72
2023/06/22 03:39:40;;;;;;;8.68;3.95;;;24.80;77.80;;;;;;7376268;19;20288;-72
2023/06/22 03:42:09;;;;;;;;;;;24.90;77.90;;;;;;7400071;19;20011;-72
2023/06/22 03:44:38;;;;;;;5.43;4.00;;;24.90;77.70;;;;;;7378392;19;19963;-72
2023/06/22 03:47:07;;;;;;;8.57;4.40;;;25.00;77.90;;;;;;7378612;19;20007;-72
2023/06/22 03:49:36;;;;;;;4.25;3.40;;;24.90;77.70;;;;;;7379152;19;20506;-72
2023/06/22 03:52:06;;;;;;;8.70;3.70;;;24.90;78.00;;;;;;7380428;19;20012;-72
2023/06/22 03:54:34;;;;;;;8.30;4.10;;;24.90;77.90;;;;;;7378042;19;20062;-72
2023/06/22 03:57:06;;;;;;;9.00;4.25;;;24.90;77.90;;;;;;7400693;19;20042;-73
2023/06/22 03:59:36;;;;;;;9.57;4.35;;;25.00;78.00;;;;;;7376868;19;20007;-73
2023/06/22 04:02:05;;;;;;;7.20;3.65;;;25.00;77.60;;;;;;7378444;19;20006;-72
2023/06/22 04:04:35;;;;;;;6.05;4.60;;;25.00;77.70;;;;;;7378122;19;20041;-72
2023/06/22 04:07:03;;;;;;;9.05;4.25;;;25.10;77.50;;;;;;7377722;19;20010;-71
2023/06/22 04:09:32;;;;;;;8.45;4.40;;;25.00;77.60;;;;;;7382467;19;20383;-71
2023/06/22 04:12:01;;;;;;;6.60;4.55;;;24.90;77.50;;;;;;7399083;19;20015;-71
2023/06/22 04:14:32;;;;;;;14.38;4.53;;;24.90;77.60;;;;;;7381001;19;20020;-71
2023/06/22 04:17:01;;;;;;;;;;;25.00;77.80;;;;;;7379127;19;20366;-71
2023/06/22 04:19:29;;;;;;;8.32;4.43;;;25.00;77.80;;;;;;7377441;19;20240;-71
2023/06/22 04:21:58;;;;;;;7.25;4.35;;;25.10;77.90;;;;;;7378813;19;20090;-71
2023/06/22 04:24:27;;;;;;;10.55;4.40;;;25.00;77.90;;;;;;7378472;19;20292;-71
2023/06/22 04:26:55;;;;;;;7.65;4.55;;;25.00;78.30;;;;;;7402109;19;20003;-71
2023/06/22 04:29:28;;;;;;;10.85;4.95;;;25.10;78.20;;;;;;7377613;19;20003;-71
2023/06/22 04:32:02;;;;;;;5.90;4.18;;;25.00;79.10;;;;;;7377884;19;20007;-71
2023/06/22 04:34:32;;;;;;;10.35;4.40;;;25.00;79.10;;;;;;7377482;19;20002;-71
2023/06/22 04:37:00;;;;;;;10.75;4.78;;;25.10;79.40;;;;;;7378213;19;19999;-71
2023/06/22 04:39:29;;;;;;;7.45;4.03;;;25.10;79.40;;;;;;7376845;19;20006;-71
2023/06/22 04:42:00;;;;;;;6.30;4.38;;;25.10;80.00;;;;;;7400147;19;20414;-72
2023/06/22 04:44:29;;;;;;;20.17;5.05;;;25.20;80.50;;;;;;7377334;19;20007;-71
2023/06/22 04:47:03;;;;;;;9.13;4.43;;;25.10;80.20;;;;;;7377404;19;20023;-71
2023/06/22 04:49:35;;;;;;;9.85;5.45;;;25.10;81.00;;;;;;7380957;19;20011;-72
2023/06/22 04:52:06;;;;;;;11.93;4.53;;;25.20;81.90;;;;;;7385442;19;20007;-72
2023/06/22 04:54:35;;;;;;;13.20;4.93;;;25.20;82.20;;;;;;7385038;19;20003;-72
2023/06/22 04:57:05;;;;;;;10.73;4.95;;;25.20;82.40;;;;;;7406699;19;20007;-72
2023/06/22 04:59:34;;;;;;;15.27;5.15;;;25.20;82.60;;;;;;7384962;19;20015;-72
2023/06/22 05:02:06;;;;;;;16.58;5.10;;;25.20;82.10;;;;;;7384783;19;20039;-71
2023/06/22 05:04:35;;;;;;;10.20;5.05;;;25.20;82.40;;;;;;7385054;19;20154;-71
2023/06/22 05:07:05;;;;;;;13.27;5.20;;;25.20;83.00;;;;;;7383013;19;20054;-71
2023/06/22 05:09:34;;;;;;;7.97;4.97;;;25.20;83.30;;;;;;7382205;19;20054;-71
2023/06/22 05:12:04;;;;;;;8.75;4.72;;;25.20;83.40;;;;;;7406016;19;20002;-71
2023/06/22 05:14:33;;;;;;;13.52;5.10;;;25.10;83.00;;;;;;7382397;19;20006;-71
2023/06/22 05:17:13;;;;;;;11.13;5.43;;;25.10;83.90;;;;;;7384099;19;20062;-71
2023/06/22 05:19:44;;;;;;;11.18;5.15;;;25.10;84.10;;;;;;7383710;19;20003;-70
2023/06/22 05:22:13;;;;;;;14.30;5.43;;;25.00;84.30;;;;;;7387103;19;20003;-71
2023/06/22 05:24:42;;;;;;;16.65;5.53;;;25.00;85.00;;;;;;7389381;19;20015;-71
2023/06/22 05:27:11;;;;;;;15.95;5.50;;;25.00;85.90;;;;;;7402965;19;20018;-72
2023/06/22 05:29:39;;;;;;;8.60;5.15;;;24.90;86.60;;;;;;7383694;19;20006;-72
2023/06/22 05:32:11;;;;;;;8.30;5.30;;;24.90;87.10;;;;;;7384091;19;20024;-72
2023/06/22 05:34:40;;;;;;;10.70;5.57;;;24.90;88.30;;;;;;7386388;19;20006;-72
2023/06/22 05:37:09;;;;;;;12.32;6.55;;;24.90;88.40;;;;;;7385303;19;20005;-72
2023/06/22 05:39:39;;;;;;;17.15;6.85;;;24.70;88.20;;;;;;7383363;19;20006;-72
2023/06/22 05:42:08;;;;;;;10.70;6.00;;;24.70;88.80;;;;;;7404058;19;20014;-72
2023/06/22 05:44:37;;;;;;;11.23;7.03;;;24.70;89.60;;;;;;7384469;19;20007;-72
2023/06/22 05:47:06;;;;;;;14.48;7.28;;;24.70;90.00;;;;;;7384175;19;20401;-72
2023/06/22 05:49:37;;;;;;;18.23;7.75;;;24.60;90.20;;;;;;7385919;19;19998;-72
2023/06/22 05:52:06;;;;;;;;;;;24.60;89.80;;;;;;7387679;19;20066;-72
2023/06/22 05:54:35;;;;;;;24.50;8.05;;;24.50;90.00;;;;;;7386080;19;19958;-71
2023/06/22 05:57:04;;;;;;;14.90;7.93;;;24.40;90.50;;;;;;7405913;19;20006;-71
2023/06/22 05:59:33;;;;;;;17.15;8.07;;;24.30;90.80;;;;;;7383369;19;20007;-72
2023/06/22 06:02:01;;;;;;;17.85;9.27;;;24.20;91.30;;;;;;7382499;19;20007;-71
2023/06/22 06:04:30;;;;;;;20.63;9.27;;;24.20;91.30;;;;;;7384670;19;20054;-73
2023/06/22 06:07:01;;;;;;;22.77;8.70;;;24.10;91.30;;;;;;7384961;19;20011;-73
2023/06/22 06:09:30;;;;;;;;;;;23.90;91.50;;;;;;7384778;19;20018;-72
2023/06/22 06:11:58;;;;;;;21.27;9.32;;;24.00;92.30;;;;;;7401774;19;20264;-72
2023/06/22 06:14:28;;;;;;;23.77;9.43;;;24.00;92.30;;;;;;7380749;19;20014;-72
2023/06/22 06:16:57;;;;;;;24.73;10.30;;;23.90;92.40;;;;;;7382572;19;20484;-72
2023/06/22 06:19:26;;;;;;;30.13;10.93;;;23.90;92.60;;;;;;7384172;19;19967;-71
2023/06/22 06:21:54;;;;;;;18.85;9.82;;;23.80;92.80;;;;;;7380915;19;20119;-72
2023/06/22 06:24:25;;;;;;;28.77;11.73;;;23.90;92.90;;;;;;7400929;19;20014;-72
2023/06/22 06:26:54;;;;;;;;;;;23.80;92.90;;;;;;7404330;19;20002;-72
2023/06/22 06:29:23;;;;;;;25.15;12.68;;;23.80;92.90;;;;;;7381153;19;20244;-72
2023/06/22 06:31:52;;;;;;;23.95;11.77;;;23.70;92.80;;;;;;7381461;19;20054;-72
2023/06/22 06:34:21;;;;;;;23.02;11.02;;;23.70;93.10;;;;;;7382624;19;20062;-72
2023/06/22 06:36:49;;;;;;;22.63;11.20;;;23.70;93.40;;;;;;7380759;19;20003;-72
2023/06/22 06:39:18;;;;;;;27.40;11.95;;;23.70;93.70;;;;;;7402202;19;20077;-72
2023/06/22 06:41:49;;;;;;;26.30;13.75;;;23.60;93.40;;;;;;7384019;19;20003;-73
2023/06/22 06:44:18;;;;;;;;;;;23.60;93.50;;;;;;7381934;19;20389;-73
2023/06/22 06:46:46;;;;;;;35.70;14.77;;;23.70;94.00;;;;;;7381794;19;19971;-72
2023/06/22 06:49:16;;;;;;;37.03;14.52;;;23.50;93.90;;;;;;7379803;19;20091;-72
2023/06/22 06:51:44;;;;;;;32.33;15.07;;;23.60;94.00;;;;;;7381713;19;19996;-71
2023/06/22 06:54:13;;;;;;;46.92;16.00;;;23.60;94.20;;;;;;7400682;19;20377;-73
2023/06/22 06:56:47;;;;;;;31.10;15.25;;;23.40;94.20;;;;;;7380625;19;20454;-72
2023/06/22 06:59:19;;;;;;;38.38;15.45;;;23.20;94.30;;;;;;7379509;19;20006;-73
2023/06/22 07:01:48;;;;;;;;;;;23.20;94.80;;;;;;7382227;19;20081;-72
2023/06/22 07:04:17;;;;;;;33.83;17.45;;;23.20;95.20;;;;;;7381000;19;19903;-72
2023/06/22 07:06:45;;;;;;;39.78;17.42;;;23.20;95.60;;;;;;7381025;19;20007;-72
2023/06/22 07:09:14;;;;;;;39.22;19.92;;;23.20;95.50;;;;;;7400793;19;20014;-71
2023/06/22 07:11:43;;;;;;;36.78;18.25;;;23.20;95.80;;;;;;7381726;19;20075;-72
2023/06/22 07:14:11;;;;;;;36.38;17.77;;;23.10;95.90;;;;;;7378585;19;20381;-72
2023/06/22 07:16:43;;;;;;;44.85;20.20;;;23.00;95.90;;;;;;7382546;19;20395;-72
2023/06/22 07:19:14;;;;;;;;;;;22.90;95.80;;;;;;7379650;19;20292;-72
2023/06/22 07:21:43;;;;;;;37.08;18.10;;;22.80;95.90;;;;;;7381016;19;19997;-73
2023/06/22 07:24:11;;;;;;;36.72;19.77;;;22.80;96.30;;;;;;7403297;19;20003;-72
2023/06/22 07:26:45;;;;;;;36.28;20.98;;;22.50;96.20;;;;;;7379826;19;20003;-73
2023/06/22 07:29:14;;;;;;;36.92;19.88;;;22.50;96.60;;;;;;7383331;19;20366;-73
2023/06/22 07:31:46;;;;;;;34.28;19.55;;;22.40;96.70;;;;;;7382035;19;20003;-73
2023/06/22 07:34:14;;;;;;;38.25;20.70;;;22.20;97.00;;;;;;7381872;19;20330;-73
2023/06/22 07:36:43;;;;;;;46.38;23.75;;;22.20;97.30;;;;;;7381435;19;20176;-72
2023/06/22 07:39:12;;;;;;;40.03;22.70;;;22.20;97.70;;;;;;7400975;19;20078;-72
2023/06/22 07:41:42;;;;;;;35.33;20.65;;;22.20;97.60;;;;;;7381200;19;20682;-72
2023/06/22 07:44:10;;;;;;;33.45;21.08;;;22.10;97.40;;;;;;7382343;19;20250;-71
2023/06/22 07:46:39;;;;;;;40.17;22.00;;;22.20;97.80;;;;;;7383710;19;20031;-72
2023/06/22 07:49:11;;;;;;;40.55;23.48;;;22.30;98.10;;;;;;7380911;19;20014;-71
2023/06/22 07:51:39;;;;;;;46.13;23.10;;;22.40;98.40;;;;;;7383924;19;20027;-70
2023/06/22 07:54:08;;;;;;;49.78;24.52;;;22.20;97.80;;;;;;7401150;19;20019;-72
2023/06/22 07:56:36;;;;;;;38.47;22.55;;;22.30;98.00;;;;;;7379917;19;20371;-72
2023/06/22 07:59:05;;;;;;;39.97;22.17;;;22.40;98.30;;;;;;7380720;19;20019;-73
2023/06/22 08:01:34;;;;;;;47.83;24.65;;;22.40;98.10;;;;;;7379913;19;20074;-73
2023/06/22 08:04:02;;;;;;;42.03;24.08;;;22.40;98.20;;;;;;7379634;19;20020;-72
2023/06/22 08:06:35;;;;;;;44.00;22.85;;;22.40;98.30;;;;;;7381323;19;20289;-72
2023/06/22 08:09:04;;;;;;;52.40;23.85;;;22.40;98.20;;;;;;7400533;19;20067;-72
2023/06/22 08:11:32;;;;;;;50.45;24.40;;;22.10;98.10;;;;;;7378267;19;20023;-72
2023/06/22 08:14:01;;;;;;;46.00;25.60;;;22.30;98.60;;;;;;7378002;19;20067;-72
2023/06/22 08:16:30;;;;;;;51.75;25.42;;;22.40;98.90;;;;;;7379370;19;20006;-73
2023/06/22 08:18:59;;;;;;;45.05;25.17;;;22.40;98.80;;;;;;7383641;19;20236;-72
2023/06/22 08:21:28;;;;;;;41.92;22.73;;;22.40;98.60;;;;;;7379177;19;20059;-75
2023/06/22 08:23:59;;;;;;;37.25;22.23;;;22.10;98.40;;;;;;7401066;19;20082;-74
2023/06/22 08:26:27;;;;;;;;;;;22.00;98.40;;;;;;7379076;19;20003;-74
2023/06/22 08:28:56;;;;;;;35.13;21.00;;;22.10;98.80;;;;;;7378576;19;19990;-74
2023/06/22 08:31:25;;;;;;;39.08;21.63;;;21.80;98.50;;;;;;7379453;19;20035;-72
2023/06/22 08:33:53;;;;;;;40.88;21.75;;;22.00;99.20;;;;;;7379704;19;20027;-72
2023/06/22 08:36:22;;;;;;;43.28;22.00;;;22.00;99.50;;;;;;7398120;19;20375;-73
2023/06/22 08:38:52;;;;;;;54.05;23.13;;;22.10;99.30;;;;;;7377921;19;20005;-72
2023/06/22 08:41:25;;;;;;;43.72;24.48;;;22.20;99.50;;;;;;7377020;19;20219;-73
2023/06/22 08:43:54;;;;;;;43.30;25.73;;;22.20;99.40;;;;;;7378453;19;19999;-71
2023/06/22 08:46:29;;;;;;;48.63;27.50;;;22.20;99.10;;;;;;7379317;19;20014;-71
2023/06/22 08:48:59;;;;;;;47.28;24.95;;;22.30;99.60;;;;;;7381592;19;20239;-74
2023/06/22 08:51:28;;;;;;;51.17;26.42;;;22.20;99.20;;;;;;7381457;19;20066;-73
2023/06/22 08:53:57;;;;;;;49.72;26.13;;;22.10;98.70;;;;;;7398801;19;20345;-73
2023/06/22 08:56:28;;;;;;;45.60;25.52;;;22.10;98.90;;;;;;7377139;19;20013;-73
2023/06/22 08:58:56;;;;;;;;;;;21.90;98.80;;;;;;7380155;19;20010;-74
2023/06/22 09:01:25;;;;;;;47.47;25.20;;;21.90;99.20;;;;;;7376464;19;20180;-73
2023/06/22 09:03:57;;;;;;;50.58;26.23;;;22.00;99.60;;;;;;7377344;19;20066;-74
2023/06/22 09:06:26;;;;;;;46.92;25.65;;;21.90;99.00;;;;;;7377293;19;20007;-72
2023/06/22 09:08:55;;;;;;;50.95;24.92;;;22.00;99.40;;;;;;7398631;19;20007;-75
2023/06/22 09:11:24;;;;;;;49.63;26.00;;;21.90;99.20;;;;;;7376803;19;20014;-73
2023/06/22 09:13:57;;;;;;;47.55;26.10;;;21.90;99.80;;;;;;7376042;19;20003;-75
2023/06/22 09:16:25;;;;;;;45.03;24.33;;;21.90;99.70;;;;;;7377483;19;20038;-74
2023/06/22 09:18:54;;;;;;;44.03;24.13;;;22.00;99.60;;;;;;7375786;19;20010;-75
2023/06/22 09:21:23;;;;;;;40.90;23.13;;;22.00;99.90;;;;;;7393652;19;20010;-72
2023/06/22 09:23:52;;;;;;;42.00;23.55;;;22.00;99.20;;;;;;7401013;19;20016;-75
2023/06/22 09:26:21;;;;;;;36.30;22.27;;;21.90;99.10;;;;;;7376399;19;20366;-73
2023/06/22 09:28:49;;;;;;;43.63;23.95;;;21.80;98.60;;;;;;7376937;19;20003;-73
2023/06/22 09:31:25;;;;;;;37.25;21.40;;;21.70;99.10;;;;;;7375399;19;20006;-74
2023/06/22 09:33:54;;;;;;;40.20;22.75;;;21.70;99.20;;;;;;7376774;19;20011;-72
2023/06/22 09:36:23;;;;;;;39.55;22.90;;;21.70;99.40;;;;;;7395166;19;20014;-74
2023/06/22 09:38:55;;;;;;;62.70;22.15;;;21.90;99.90;;;;;;7405451;19;20010;-74
2023/06/22 09:41:23;;;;;;;41.58;22.50;;;21.90;99.50;;;;;;7383451;19;20062;-74
2023/06/22 09:43:52;;;;;;;36.63;21.73;;;21.90;99.00;;;;;;7383827;19;20010;-75
2023/06/22 09:46:25;;;;;;;38.40;21.13;;;21.90;99.50;;;;;;7383544;19;20090;-72
2023/06/22 09:48:53;;;;;;;38.17;19.85;;;21.90;99.20;;;;;;7386041;19;20002;-74
2023/06/22 09:51:23;;;;;;;32.10;19.02;;;22.00;99.30;;;;;;7405249;19;20024;-74
2023/06/22 09:53:53;;;;;;;36.72;20.73;;;21.90;98.70;;;;;;7383702;19;20236;-74
2023/06/22 09:56:22;;;;;;;38.72;21.45;;;21.80;99.30;;;;;;7382156;19;20070;-74
2023/06/22 09:58:52;;;;;;;38.08;20.58;;;21.80;99.40;;;;;;7384527;19;20110;-73
2023/06/22 10:01:24;;;;;;;41.20;21.10;;;21.80;99.70;;;;;;7382202;19;20010;-71
2023/06/22 10:03:55;;;;;;;38.80;21.08;;;21.60;98.80;;;;;;7381663;19;20042;-72
2023/06/22 10:06:24;;;;;;;32.33;18.83;;;21.50;99.60;;;;;;7391143;19;20363;-71
2023/06/22 10:08:53;;;;;;;39.33;20.90;;;21.80;99.90;;;;;;7404419;19;20079;-72
2023/06/22 10:11:26;;;;;;;39.08;19.88;;;21.90;99.90;;;;;;7382422;19;20010;-73
2023/06/22 10:13:55;;;;;;;32.20;19.92;;;22.10;99.90;;;;;;7380576;19;20011;-74
2023/06/22 10:16:33;;;;;;;43.47;17.88;;;22.30;99.90;;;;;;7382389;19;20382;-74
2023/06/22 10:19:01;;;;;;;30.73;17.48;;;22.30;99.40;;;;;;7382700;19;20011;-73
2023/06/22 10:21:31;;;;;;;26.48;16.55;;;22.40;98.90;;;;;;7380156;19;20257;-72
2023/06/22 10:24:05;;;;;;;27.40;15.73;;;22.40;99.20;;;;;;7402762;19;20010;-73
2023/06/22 10:26:34;;;;;;;23.20;15.20;;;22.50;99.40;;;;;;7381943;19;20010;-74
2023/06/22 10:29:03;;;;;;;26.70;15.52;;;22.60;98.40;;;;;;7382083;19;20003;-73
2023/06/22 10:31:34;;;;;;;29.17;15.65;;;22.60;99.00;;;;;;7382253;19;20007;-73
2023/06/22 10:34:03;;;;;;;;;;;22.40;99.10;;;;;;7383059;19;20014;-73
2023/06/22 10:36:31;;;;;;;26.40;16.15;;;22.60;98.10;;;;;;7382245;19;19911;-72
2023/06/22 10:39:01;;;;;;;28.40;15.18;;;22.60;99.50;;;;;;7404606;19;20010;-71
2023/06/22 10:41:31;;;;;;;22.77;13.70;;;22.70;99.90;;;;;;7379682;19;20009;-72
2023/06/22 10:44:00;;;;;;;28.98;14.23;;;22.80;99.90;;;;;;7381632;19;20079;-71
2023/06/22 10:46:29;;;;;;;25.58;14.60;;;22.90;97.20;;;;;;7380269;19;20010;-72
2023/06/22 10:49:00;;;;;;;28.30;14.25;;;23.00;98.10;;;;;;7383127;19;20042;-71
2023/06/22 10:51:29;;;;;;;;;;;23.00;97.50;;;;;;7381923;19;20417;-72
2023/06/22 10:53:57;;;;;;;20.60;13.40;;;22.70;96.10;;;;;;7400828;19;19907;-72
2023/06/22 10:56:26;;;;;;;24.83;13.02;;;22.50;96.10;;;;;;7382778;19;20323;-72
2023/06/22 10:58:55;;;;;;;27.63;13.30;;;22.40;97.20;;;;;;7381161;19;20007;-72
2023/06/22 11:01:23;;;;;;;28.90;12.75;;;22.30;96.50;;;;;;7380996;19;20005;-72
2023/06/22 11:03:52;;;;;;;23.77;12.90;;;22.40;97.30;;;;;;7381088;19;20299;-73
2023/06/22 11:06:23;;;;;;;22.00;11.98;;;22.40;97.60;;;;;;7403401;19;20010;-72
2023/06/22 11:08:52;;;;;;;;;;;22.60;98.60;;;;;;7381166;19;20011;-73
2023/06/22 11:11:20;;;;;;;21.67;12.05;;;22.50;96.90;;;;;;7380173;19;19915;-73
2023/06/22 11:13:49;;;;;;;19.30;10.98;;;22.60;97.30;;;;;;7379336;19;20051;-72
2023/06/22 11:16:18;;;;;;;22.20;11.55;;;22.80;97.70;;;;;;7379522;19;20011;-73
2023/06/22 11:18:46;;;;;;;18.08;11.27;;;22.90;97.30;;;;;;7380354;19;20460;-74
2023/06/22 11:21:15;;;;;;;20.35;11.57;;;22.90;96.80;;;;;;7400856;19;20050;-74
2023/06/22 11:23:48;;;;;;;17.92;11.88;;;22.80;97.60;;;;;;7379944;19;20024;-72
2023/06/22 11:26:17;;;;;;;14.73;10.95;;;23.00;97.10;;;;;;7379576;19;20007;-73
2023/06/22 11:28:45;;;;;;;24.77;11.10;;;23.10;97.20;;;;;;7380338;19;20003;-73
2023/06/22 11:31:14;;;;;;;21.48;11.10;;;23.30;96.60;;;;;;7381997;19;20007;-71
2023/06/22 11:33:44;;;;;;;17.85;10.38;;;23.40;96.50;;;;;;7380282;19;20294;-73
2023/06/22 11:36:14;;;;;;;20.60;10.57;;;23.40;96.80;;;;;;7399747;19;20354;-73
2023/06/22 11:38:43;;;;;;;19.13;10.77;;;23.50;97.10;;;;;;7380122;19;20006;-73
2023/06/22 11:41:14;;;;;;;15.80;10.33;;;23.50;95.10;;;;;;7378509;19;20006;-74
2023/06/22 11:43:43;;;;;;;;;;;23.40;94.70;;;;;;7380624;19;20003;-73
2023/06/22 11:46:12;;;;;;;17.85;9.43;;;23.40;95.10;;;;;;7378466;19;19918;-73
2023/06/22 11:48:40;;;;;;;16.35;9.70;;;23.50;95.40;;;;;;7384019;19;20013;-72
2023/06/22 11:51:09;;;;;;;19.17;10.43;;;23.70;96.00;;;;;;7404510;19;20075;-72
2023/06/22 11:53:38;;;;;;;18.98;10.18;;;23.90;95.20;;;;;;7378897;19;20006;-73
2023/06/22 11:56:07;;;;;;;18.70;9.85;;;24.00;94.20;;;;;;7379273;19;20002;-73
2023/06/22 11:58:38;;;;;;;16.80;10.80;;;24.10;94.30;;;;;;7377727;19;20003;-74
2023/06/22 12:01:08;;;;;;;;;;;24.20;93.20;;;;;;7380486;19;20014;-73
2023/06/22 12:03:37;;;;;;;17.55;9.52;;;24.20;93.00;;;;;;7379439;19;19935;-75
2023/06/22 12:06:06;;;;;;;16.92;9.45;;;24.20;94.20;;;;;;7398925;19;20018;-73
2023/06/22 12:08:35;;;;;;;17.67;8.85;;;24.30;94.50;;;;;;7378301;19;20007;-73
2023/06/22 12:11:03;;;;;;;21.00;10.30;;;24.50;95.10;;;;;;7383865;19;20027;-73
2023/06/22 12:13:32;;;;;;;15.55;10.02;;;24.60;92.50;;;;;;7377461;19;20007;-74
2023/06/22 12:16:03;;;;;;;20.55;10.88;;;24.40;92.30;;;;;;7378301;19;20013;-73
2023/06/22 12:18:32;;;;;;;21.63;10.48;;;24.30;91.80;;;;;;7378553;19;20359;-74
2023/06/22 12:21:01;;;;;;;19.23;10.85;;;24.10;92.30;;;;;;7399604;19;20015;-73
2023/06/22 12:23:29;;;;;;;15.27;10.32;;;24.10;92.70;;;;;;7377937;19;20010;-73
2023/06/22 12:25:59;;;;;;;19.90;10.80;;;24.30;92.80;;;;;;7379047;19;20023;-72
2023/06/22 12:28:28;;;;;;;18.50;10.30;;;24.20;92.20;;;;;;7378756;19;20331;-72
2023/06/22 12:30:56;;;;;;;15.05;10.40;;;24.10;92.20;;;;;;7378704;19;20058;-73
2023/06/22 12:33:27;;;;;;;16.85;10.77;;;24.00;92.30;;;;;;7377263;19;20079;-73
2023/06/22 12:35:56;;;;;;;;;;;24.00;91.90;;;;;;7403839;19;20010;-73
2023/06/22 12:38:25;;;;;;;15.65;8.75;;;24.00;92.00;;;;;;7379944;19;19943;-73
2023/06/22 12:40:54;;;;;;;16.30;9.85;;;24.10;92.10;;;;;;7377720;19;20014;-75
2023/06/22 12:43:22;;;;;;;15.13;9.23;;;24.10;92.20;;;;;;7379022;19;20019;-73
2023/06/22 12:45:51;;;;;;;16.38;10.52;;;24.20;91.70;;;;;;7376817;19;20089;-73
2023/06/22 12:48:20;;;;;;;17.33;9.27;;;24.10;91.70;;;;;;7399434;19;20024;-72
2023/06/22 12:50:51;;;;;;;17.50;9.70;;;24.30;92.20;;;;;;7377698;19;20007;-72
2023/06/22 12:53:20;;;;;;;15.63;8.95;;;24.20;91.60;;;;;;7377834;19;20038;-71